createdAt,value
2023-08-22T00:01:28.114Z,50.34
2023-08-22T00:03:58.086Z,49.64
2023-08-22T00:06:25.370Z,50.21
2023-08-22T00:08:51.913Z,50.39
2023-08-22T00:11:18.415Z,50.31
2023-08-22T00:13:44.905Z,49.68
2023-08-22T00:16:11.451Z,50.26
2023-08-22T00:18:37.958Z,49.99
2023-08-22T00:21:04.939Z,50.00
2023-08-22T00:23:31.490Z,50.14
2023-08-22T00:25:57.975Z,49.91
2023-08-22T00:28:24.547Z,50.12
2023-08-22T00:30:53.464Z,50.23
2023-08-22T00:33:19.974Z,50.16
2023-08-22T00:35:46.551Z,50.42
2023-08-22T00:38:13.053Z,50.26
2023-08-22T00:40:39.537Z,50.39
2023-08-22T00:43:06.030Z,50.63
2023-08-22T00:45:32.610Z,50.92
2023-08-22T00:47:59.159Z,50.83
2023-08-22T00:50:25.746Z,50.66
2023-08-22T00:52:52.309Z,50.57
2023-08-22T00:55:19.002Z,50.43
2023-08-22T00:57:45.516Z,50.46
2023-08-22T01:00:12.188Z,50.44
2023-08-22T01:02:40.202Z,50.50
2023-08-22T01:05:07.330Z,50.72
2023-08-22T01:07:38.463Z,50.71
2023-08-22T01:10:12.705Z,50.68
2023-08-22T01:13:03.617Z,50.74
2023-08-22T01:15:30.606Z,50.80
2023-08-22T01:17:58.087Z,50.71
2023-08-22T01:20:26.154Z,50.71
2023-08-22T01:22:52.745Z,50.43
2023-08-22T01:25:19.659Z,50.77
2023-08-22T01:28:00.320Z,51.10
2023-08-22T01:30:33.270Z,51.13
2023-08-22T01:33:05.020Z,50.99
2023-08-22T01:35:32.497Z,51.43
2023-08-22T01:37:59.055Z,51.38
2023-08-22T01:40:25.844Z,51.42
2023-08-22T01:42:52.392Z,51.68
2023-08-22T01:45:18.886Z,51.30
2023-08-22T01:47:45.383Z,51.38
2023-08-22T01:50:12.174Z,51.56
2023-08-22T01:52:38.719Z,51.16
2023-08-22T01:55:05.531Z,51.39
2023-08-22T01:57:32.035Z,51.51
2023-08-22T01:59:59.403Z,51.41
2023-08-22T02:02:26.015Z,51.37
2023-08-22T02:04:52.668Z,51.61
2023-08-22T02:07:19.119Z,51.77
2023-08-22T02:09:45.623Z,51.09
2023-08-22T02:12:12.116Z,51.35
2023-08-22T02:14:38.582Z,51.51
2023-08-22T02:17:05.163Z,51.18
2023-08-22T02:19:31.672Z,51.28
2023-08-22T02:21:58.154Z,51.50
2023-08-22T02:24:24.658Z,51.39
2023-08-22T02:26:51.192Z,51.61
2023-08-22T02:29:17.732Z,51.53
2023-08-22T02:31:44.407Z,51.88
2023-08-22T02:34:10.939Z,51.68
2023-08-22T02:36:37.435Z,52.18
2023-08-22T02:39:04.816Z,51.89
2023-08-22T02:41:31.343Z,51.83
2023-08-22T02:43:57.914Z,52.37
2023-08-22T02:46:24.403Z,52.10
2023-08-22T02:48:50.946Z,52.26
2023-08-22T02:51:17.490Z,52.33
2023-08-22T02:53:43.992Z,52.13
2023-08-22T02:56:11.522Z,52.61
2023-08-22T02:58:38.022Z,52.17
2023-08-22T03:01:08.154Z,52.56
2023-08-22T03:03:34.852Z,52.51
2023-08-22T03:06:01.795Z,52.89
2023-08-22T03:08:28.390Z,53.02
2023-08-22T03:10:59.788Z,52.50
2023-08-22T03:13:26.272Z,52.91
2023-08-22T03:15:53.713Z,52.87
2023-08-22T03:18:20.358Z,53.04
2023-08-22T03:20:47.149Z,52.90
2023-08-22T03:23:15.237Z,52.71
2023-08-22T03:25:41.754Z,52.98
2023-08-22T03:28:08.234Z,52.79
2023-08-22T03:30:34.750Z,52.50
2023-08-22T03:33:01.289Z,53.12
2023-08-22T03:35:27.852Z,53.26
2023-08-22T03:37:54.355Z,53.29
2023-08-22T03:40:20.882Z,52.94
2023-08-22T03:42:47.337Z,53.29
2023-08-22T03:45:13.836Z,53.49
2023-08-22T03:47:40.615Z,53.48
2023-08-22T03:50:07.582Z,53.31
2023-08-22T03:52:34.086Z,53.56
2023-08-22T03:55:00.646Z,53.65
2023-08-22T03:57:27.212Z,53.45
2023-08-22T03:59:53.865Z,53.03
2023-08-22T04:02:20.419Z,53.26
2023-08-22T04:04:46.923Z,53.77
2023-08-22T04:07:13.443Z,53.43
2023-08-22T04:09:40.009Z,53.38
2023-08-22T04:12:06.789Z,53.68
2023-08-22T04:14:33.283Z,53.89
2023-08-22T04:16:59.807Z,53.53
2023-08-22T04:19:26.355Z,54.41
2023-08-22T04:21:53.024Z,53.59
2023-08-22T04:24:19.547Z,53.94
2023-08-22T04:26:46.420Z,54.02
2023-08-22T04:29:13.475Z,53.72
2023-08-22T04:31:39.964Z,53.50
2023-08-22T04:34:06.451Z,53.60
2023-08-22T04:36:32.972Z,53.83
2023-08-22T04:38:59.498Z,53.66
2023-08-22T04:41:26.010Z,53.73
2023-08-22T04:43:52.514Z,53.39
2023-08-22T04:46:19.242Z,53.30
2023-08-22T04:48:45.803Z,53.42
2023-08-22T04:51:12.313Z,53.59
2023-08-22T04:53:38.804Z,53.70
2023-08-22T04:56:05.301Z,53.48
2023-08-22T04:58:31.931Z,53.65
2023-08-22T05:00:58.562Z,53.38
2023-08-22T05:03:25.336Z,53.59
2023-08-22T05:05:51.868Z,53.51
2023-08-22T05:08:19.021Z,53.29
2023-08-22T05:10:45.634Z,53.50
2023-08-22T05:13:12.180Z,53.94
2023-08-22T05:15:38.663Z,53.16
2023-08-22T05:18:05.329Z,53.34
2023-08-22T05:20:31.861Z,53.50
2023-08-22T05:22:58.336Z,53.30
2023-08-22T05:25:24.839Z,53.11
2023-08-22T05:27:51.347Z,53.08
2023-08-22T05:30:18.484Z,53.34
2023-08-22T05:32:45.164Z,53.29
2023-08-22T05:35:11.705Z,53.19
2023-08-22T05:37:38.320Z,53.33
2023-08-22T05:40:07.480Z,53.05
2023-08-22T05:42:34.138Z,52.82
2023-08-22T05:45:00.649Z,53.35
2023-08-22T05:47:27.125Z,53.79
2023-08-22T05:49:53.645Z,53.45
2023-08-22T05:52:20.485Z,53.74
2023-08-22T05:54:47.045Z,54.12
2023-08-22T05:57:13.555Z,53.25
2023-08-22T05:59:40.028Z,53.88
2023-08-22T06:02:06.819Z,54.08
2023-08-22T06:04:33.355Z,52.68
2023-08-22T06:06:59.843Z,52.58
2023-08-22T06:09:26.337Z,52.83
2023-08-22T06:11:52.853Z,53.27
2023-08-22T06:14:19.349Z,52.81
2023-08-22T06:16:45.862Z,52.33
2023-08-22T06:19:12.367Z,51.91
2023-08-22T06:21:38.871Z,52.27
2023-08-22T06:24:05.906Z,51.60
2023-08-22T06:26:32.451Z,50.65
2023-08-22T06:28:59.262Z,49.59
2023-08-22T06:31:25.821Z,49.85
2023-08-22T06:33:52.411Z,49.08
2023-08-22T06:36:19.045Z,49.81
2023-08-22T06:38:45.682Z,50.38
2023-08-22T06:41:12.166Z,49.92
2023-08-22T06:43:38.657Z,48.89
2023-08-22T06:46:05.209Z,49.18
2023-08-22T06:48:41.592Z,49.97
2023-08-22T06:51:09.727Z,49.13
2023-08-22T06:53:36.203Z,49.54
2023-08-22T06:56:02.810Z,48.24
2023-08-22T06:58:29.363Z,47.70
2023-08-22T07:00:55.985Z,47.13
2023-08-22T07:03:22.615Z,47.24
2023-08-22T07:05:55.936Z,47.74
2023-08-22T07:08:22.476Z,48.40
2023-08-22T07:10:49.117Z,47.77
2023-08-22T07:13:15.797Z,47.15
2023-08-22T07:15:42.473Z,46.66
2023-08-22T07:18:09.127Z,45.12
2023-08-22T07:20:35.684Z,46.04
2023-08-22T07:23:02.207Z,44.98
2023-08-22T07:25:29.108Z,45.85
2023-08-22T07:27:56.055Z,45.17
2023-08-22T07:30:22.573Z,43.75
2023-08-22T07:32:49.112Z,44.47
2023-08-22T07:35:15.813Z,44.13
2023-08-22T07:37:42.367Z,44.67
2023-08-22T07:40:09.787Z,42.99
2023-08-22T07:42:36.675Z,43.60
2023-08-22T07:45:05.050Z,42.40
2023-08-22T07:47:31.766Z,39.43
2023-08-22T07:49:58.382Z,38.13
2023-08-22T07:52:24.902Z,34.30
2023-08-22T07:54:51.521Z,30.76
2023-08-22T07:57:19.598Z,30.02
2023-08-22T07:59:46.285Z,28.35
2023-08-22T08:02:12.898Z,27.40
2023-08-22T08:04:39.462Z,27.23
2023-08-22T08:07:05.978Z,25.68
2023-08-22T08:09:35.895Z,24.94
2023-08-22T08:12:04.503Z,23.95
2023-08-22T08:14:30.950Z,23.44
2023-08-22T08:16:57.501Z,23.26
2023-08-22T08:19:27.036Z,21.98
2023-08-22T08:21:54.216Z,21.34
2023-08-22T08:24:20.809Z,20.88
2023-08-22T08:26:47.361Z,19.97
2023-08-22T08:29:13.846Z,20.33
2023-08-22T08:31:40.366Z,19.37
2023-08-22T08:34:08.024Z,19.00
2023-08-22T08:36:34.536Z,19.14
2023-08-22T08:39:01.110Z,19.34
2023-08-22T08:41:27.970Z,17.86
2023-08-22T08:43:54.505Z,17.29
2023-08-22T08:46:21.122Z,17.63
2023-08-22T08:48:47.871Z,16.92
2023-08-22T08:51:14.456Z,17.12
2023-08-22T08:53:41.138Z,16.65
2023-08-22T08:56:11.168Z,16.42
2023-08-22T08:58:39.339Z,16.58
2023-08-22T09:01:06.355Z,15.94
2023-08-22T09:03:32.841Z,16.27
2023-08-22T09:05:59.912Z,16.42
2023-08-22T09:08:26.512Z,15.68
2023-08-22T09:10:53.822Z,15.76
2023-08-22T09:13:33.289Z,15.19
2023-08-22T09:16:05.303Z,15.88
2023-08-22T09:18:33.984Z,17.40
2023-08-22T09:21:05.205Z,18.04
2023-08-22T09:23:32.961Z,19.50
2023-08-22T09:26:03.015Z,19.91
2023-08-22T09:28:29.591Z,21.25
2023-08-22T09:30:56.150Z,21.54
2023-08-22T09:33:22.644Z,22.22
2023-08-22T09:35:49.412Z,22.04
2023-08-22T09:38:15.962Z,23.04
2023-08-22T09:40:53.274Z,23.86
2023-08-22T09:43:20.646Z,23.71
2023-08-22T09:45:47.342Z,24.56
2023-08-22T09:48:17.223Z,24.97
2023-08-22T09:50:44.120Z,24.20
2023-08-22T09:53:11.019Z,25.08
2023-08-22T09:55:37.552Z,24.75
2023-08-22T09:58:05.581Z,25.91
2023-08-22T10:00:32.377Z,25.45
2023-08-22T10:02:59.179Z,26.90
2023-08-22T10:05:25.784Z,26.42
2023-08-22T10:07:52.318Z,25.35
2023-08-22T10:10:18.897Z,26.45
2023-08-22T10:12:45.442Z,27.09
2023-08-22T10:15:12.104Z,27.10
2023-08-22T10:17:39.793Z,25.83
2023-08-22T10:20:06.812Z,27.25
2023-08-22T10:22:34.208Z,27.39
2023-08-22T10:25:08.100Z,26.89
2023-08-22T10:27:37.704Z,26.32
2023-08-22T11:10:40.482Z,29.58
2023-08-22T11:13:08.911Z,30.52
2023-08-22T11:15:35.689Z,30.70
2023-08-22T11:18:02.253Z,30.09
2023-08-22T11:20:28.771Z,30.26
2023-08-22T11:22:55.429Z,31.14
2023-08-22T11:25:25.968Z,31.82
2023-08-22T11:27:52.526Z,31.95
2023-08-22T11:30:20.015Z,29.85
2023-08-22T11:32:46.821Z,31.33
2023-08-22T11:35:13.623Z,30.59
2023-08-22T11:37:43.420Z,30.29
2023-08-22T11:40:15.541Z,29.45
2023-08-22T11:42:42.714Z,29.93
2023-08-22T11:45:11.377Z,30.26
2023-08-22T11:47:57.688Z,29.91
2023-08-22T11:50:25.912Z,29.79
2023-08-22T11:53:08.807Z,30.09
2023-08-22T11:55:36.459Z,30.29
2023-08-22T11:58:06.848Z,30.02
2023-08-22T12:00:34.009Z,30.77
2023-08-22T12:03:02.485Z,30.56
2023-08-22T12:05:35.653Z,30.63
2023-08-22T12:08:16.879Z,30.70
2023-08-22T12:10:50.618Z,28.31
2023-08-22T12:13:21.296Z,29.00
2023-08-22T12:15:48.111Z,30.38
2023-08-22T12:18:14.876Z,30.24
2023-08-22T12:20:43.049Z,30.69
2023-08-22T12:23:10.860Z,30.99
2023-08-22T12:25:38.595Z,30.70
2023-08-22T12:28:05.787Z,31.46
2023-08-22T12:30:34.747Z,31.70
2023-08-22T12:33:03.995Z,31.30
2023-08-22T12:35:32.079Z,31.44
2023-08-22T12:37:58.947Z,31.41
2023-08-22T12:40:25.529Z,30.37
2023-08-22T12:42:52.173Z,31.55
2023-08-22T12:45:18.835Z,31.88
2023-08-22T12:47:45.744Z,32.31
2023-08-22T12:50:12.714Z,31.65
2023-08-22T12:52:39.225Z,30.65
2023-08-22T12:55:11.139Z,31.96
2023-08-22T12:57:41.981Z,31.54
2023-08-22T13:00:09.867Z,31.80
2023-08-22T13:02:43.028Z,30.16
2023-08-22T13:05:09.824Z,31.02
2023-08-22T13:07:36.447Z,31.50
2023-08-22T13:10:05.129Z,32.34
2023-08-22T13:12:31.549Z,32.36
2023-08-22T13:14:58.099Z,32.66
2023-08-22T13:17:24.694Z,30.52
2023-08-22T13:19:51.212Z,31.35
2023-08-22T13:22:17.760Z,31.20
2023-08-22T13:24:44.440Z,31.76
2023-08-22T13:27:10.945Z,30.76
2023-08-22T13:29:37.564Z,30.58
2023-08-22T13:32:04.566Z,31.50
2023-08-22T13:34:31.121Z,31.96
2023-08-22T13:36:57.664Z,31.31
2023-08-22T13:39:24.137Z,31.05
2023-08-22T13:41:50.710Z,31.60
2023-08-22T13:44:17.242Z,30.60
2023-08-22T13:46:44.054Z,31.19
2023-08-22T13:49:10.632Z,31.06
2023-08-22T13:51:37.135Z,30.93
2023-08-22T13:54:04.350Z,31.31
2023-08-22T13:56:31.758Z,31.59
2023-08-22T13:58:59.212Z,31.10
2023-08-22T14:01:27.391Z,31.28
2023-08-22T14:03:54.090Z,31.24
2023-08-22T14:06:20.726Z,31.22
2023-08-22T14:08:48.811Z,31.52
2023-08-22T14:11:15.623Z,31.52
2023-08-22T14:13:43.727Z,32.61
2023-08-22T14:16:10.391Z,31.56
2023-08-22T14:18:36.974Z,31.57
2023-08-22T14:21:03.613Z,31.92
2023-08-22T14:23:30.357Z,31.15
2023-08-22T14:25:56.925Z,31.83
2023-08-22T14:28:23.541Z,32.74
2023-08-22T14:30:50.150Z,31.51
2023-08-22T14:33:16.823Z,31.46
2023-08-22T14:35:43.530Z,30.51
2023-08-22T14:38:10.272Z,30.84
2023-08-22T14:40:37.136Z,30.71
2023-08-22T14:43:03.774Z,30.77
2023-08-22T14:45:30.297Z,30.42
2023-08-22T14:47:56.821Z,30.39
2023-08-22T14:50:23.385Z,30.96
2023-08-22T14:52:49.942Z,32.10
2023-08-22T14:55:16.629Z,31.52
2023-08-22T14:57:43.333Z,29.44
2023-08-22T15:00:11.214Z,30.36
2023-08-22T15:02:37.940Z,30.60
2023-08-22T15:05:04.989Z,30.83
2023-08-22T15:07:31.556Z,30.59
2023-08-22T15:09:58.446Z,30.39
2023-08-22T15:12:25.187Z,30.90
2023-08-22T15:14:51.684Z,30.50
2023-08-22T15:17:18.272Z,30.68
2023-08-22T15:19:44.977Z,29.55
2023-08-22T15:22:11.561Z,29.94
2023-08-22T15:24:38.093Z,29.81
2023-08-22T15:27:04.586Z,29.09
2023-08-22T15:29:31.083Z,29.63
2023-08-22T15:31:57.809Z,29.96
2023-08-22T15:34:25.406Z,29.52
2023-08-22T15:36:52.296Z,29.65
2023-08-22T15:39:19.272Z,29.66
2023-08-22T15:41:45.823Z,29.65
2023-08-22T15:44:12.316Z,29.19
2023-08-22T15:46:38.894Z,29.70
2023-08-22T15:49:05.554Z,29.35
2023-08-22T15:51:33.022Z,29.51
2023-08-22T15:53:59.562Z,29.51
2023-08-22T15:56:28.847Z,29.97
2023-08-22T15:58:55.854Z,30.06
2023-08-22T16:01:22.571Z,29.42
2023-08-22T16:03:49.251Z,29.48
2023-08-22T16:06:16.046Z,29.85
2023-08-22T16:08:42.525Z,30.42
2023-08-22T16:11:09.114Z,30.26
2023-08-22T16:13:35.635Z,30.64
2023-08-22T16:16:02.177Z,30.38
2023-08-22T16:18:28.691Z,30.06
2023-08-22T16:20:55.212Z,30.36
2023-08-22T16:23:22.890Z,30.82
2023-08-22T16:25:50.327Z,30.49
2023-08-22T16:28:16.933Z,30.48
2023-08-22T16:30:43.655Z,31.21
2023-08-22T16:33:10.435Z,31.26
2023-08-22T16:35:37.137Z,30.96
2023-08-22T16:38:04.386Z,30.68
2023-08-22T16:40:31.095Z,30.53
2023-08-22T16:42:57.682Z,30.54
2023-08-22T16:45:24.195Z,29.48
2023-08-22T16:47:51.061Z,30.26
2023-08-22T16:50:18.016Z,30.39
2023-08-22T16:52:44.504Z,30.20
2023-08-22T16:55:12.855Z,30.14
2023-08-22T16:57:40.198Z,30.47
2023-08-22T17:00:13.765Z,30.37
2023-08-22T17:02:40.464Z,30.68
2023-08-22T17:05:07.409Z,30.83
2023-08-22T17:07:33.920Z,31.27
2023-08-22T17:10:00.468Z,31.40
2023-08-22T17:12:27.001Z,31.18
2023-08-22T17:14:53.566Z,30.77
2023-08-22T17:17:20.098Z,31.27
2023-08-22T17:19:46.719Z,31.02
2023-08-22T17:22:13.353Z,31.53
2023-08-22T17:24:39.982Z,31.59
2023-08-22T17:27:06.478Z,32.10
2023-08-22T17:29:33.019Z,32.54
2023-08-22T17:32:00.340Z,33.56
2023-08-22T17:34:26.823Z,33.36
2023-08-22T17:36:53.523Z,33.73
2023-08-22T17:39:20.055Z,33.47
2023-08-22T17:41:46.608Z,33.69
2023-08-22T17:44:13.164Z,34.42
2023-08-22T17:46:40.456Z,34.05
2023-08-22T17:49:06.992Z,34.68
2023-08-22T17:51:33.724Z,34.31
2023-08-22T17:54:00.675Z,35.02
2023-08-22T17:56:27.133Z,35.20
2023-08-22T17:58:53.724Z,35.74
2023-08-22T18:01:20.429Z,36.06
2023-08-22T18:03:47.221Z,36.43
2023-08-22T18:06:13.843Z,36.17
2023-08-22T18:08:41.901Z,36.41
2023-08-22T18:11:27.228Z,36.48
2023-08-22T18:13:53.919Z,37.10
2023-08-22T18:16:20.735Z,37.58
2023-08-22T18:18:47.284Z,37.02
2023-08-22T18:21:14.225Z,37.61
2023-08-22T18:23:41.100Z,37.79
2023-08-22T18:26:09.048Z,37.93
2023-08-22T18:28:35.825Z,38.18
2023-08-22T18:31:03.649Z,38.39
2023-08-22T18:33:30.437Z,38.57
2023-08-22T18:35:57.032Z,39.06
2023-08-22T18:38:23.595Z,39.46
2023-08-22T18:40:54.033Z,39.24
2023-08-22T18:43:20.858Z,38.94
2023-08-22T18:45:47.895Z,39.55
2023-08-22T18:48:14.547Z,39.91
2023-08-22T18:50:41.202Z,39.95
2023-08-22T18:53:07.766Z,40.12
2023-08-22T18:55:34.931Z,40.39
2023-08-22T18:58:01.882Z,40.19
2023-08-22T19:00:28.595Z,40.54
2023-08-22T19:02:56.690Z,40.49
2023-08-22T19:05:24.384Z,40.78
2023-08-22T19:07:50.927Z,41.04
2023-08-22T19:10:17.515Z,41.03
2023-08-22T19:12:44.087Z,40.82
2023-08-22T19:15:10.788Z,41.04
2023-08-22T19:17:37.394Z,41.22
2023-08-22T19:20:04.827Z,41.13
2023-08-22T19:22:31.349Z,41.03
2023-08-22T19:24:57.862Z,41.15
2023-08-22T19:27:26.496Z,41.45
2023-08-22T19:29:53.100Z,41.39
2023-08-22T19:32:31.771Z,41.44
2023-08-22T19:35:06.482Z,41.34
2023-08-22T19:37:33.075Z,41.49
2023-08-22T19:39:59.575Z,41.60
2023-08-22T19:42:26.235Z,41.42
2023-08-22T19:44:55.968Z,41.82
2023-08-22T19:47:22.909Z,42.14
2023-08-22T19:49:50.306Z,42.20
2023-08-22T19:52:17.053Z,42.15
2023-08-22T19:54:43.765Z,42.28
2023-08-22T19:57:10.609Z,42.44
2023-08-22T19:59:39.901Z,42.72
2023-08-22T20:02:06.479Z,42.76
2023-08-22T20:04:33.034Z,42.59
2023-08-22T20:06:59.556Z,43.06
2023-08-22T20:09:26.211Z,42.73
2023-08-22T20:11:52.877Z,43.04
2023-08-22T20:14:19.415Z,43.15
2023-08-22T20:16:46.083Z,43.15
2023-08-22T20:19:13.251Z,43.10
2023-08-22T20:21:39.831Z,43.31
2023-08-22T20:24:06.502Z,42.99
2023-08-22T20:26:39.788Z,43.24
2023-08-22T20:29:07.123Z,43.12
2023-08-22T20:31:35.060Z,43.09
2023-08-22T20:34:01.609Z,43.26
2023-08-22T20:36:28.167Z,43.62
2023-08-22T20:38:57.147Z,43.15
2023-08-22T20:41:23.702Z,43.13
2023-08-22T20:43:50.188Z,43.33
2023-08-22T20:46:16.729Z,43.28
2023-08-22T20:48:43.339Z,43.27
2023-08-22T20:51:09.906Z,43.02
2023-08-22T20:53:36.392Z,42.96
2023-08-22T20:56:02.873Z,43.35
2023-08-22T20:58:29.406Z,43.32
2023-08-22T21:00:55.924Z,43.34
2023-08-22T21:03:22.500Z,43.14
2023-08-22T21:05:49.843Z,43.23
2023-08-22T21:08:16.343Z,43.38
2023-08-22T21:10:43.311Z,43.36
2023-08-22T21:13:09.790Z,43.30
2023-08-22T21:15:36.299Z,43.12
2023-08-22T21:18:02.920Z,42.76
2023-08-22T21:20:29.464Z,43.21
2023-08-22T21:22:56.073Z,43.48
2023-08-22T21:25:22.550Z,43.45
2023-08-22T21:27:49.038Z,43.24
2023-08-22T21:30:15.578Z,43.65
2023-08-22T21:32:42.139Z,43.25
2023-08-22T21:35:09.042Z,43.95
2023-08-22T21:37:35.550Z,43.74
2023-08-22T21:40:02.102Z,44.02
2023-08-22T21:42:28.690Z,44.39
2023-08-22T21:44:55.294Z,44.11
2023-08-22T21:47:21.815Z,44.26
2023-08-22T21:49:48.409Z,44.69
2023-08-22T21:52:15.077Z,44.82
2023-08-22T21:54:41.754Z,44.86
2023-08-22T21:57:08.248Z,44.94
2023-08-22T21:59:34.826Z,44.90
2023-08-22T22:02:01.415Z,45.04
2023-08-22T22:04:27.973Z,45.19
2023-08-22T22:06:54.472Z,45.46
2023-08-22T22:09:20.986Z,45.42
2023-08-22T22:11:47.530Z,45.25
2023-08-22T22:14:14.116Z,45.38
2023-08-22T22:16:45.537Z,45.72
2023-08-22T22:19:12.829Z,45.57
2023-08-22T22:21:39.452Z,46.10
2023-08-22T22:24:06.207Z,45.77
2023-08-22T22:26:32.750Z,46.03
2023-08-22T22:28:59.279Z,46.17
2023-08-22T22:31:25.909Z,46.17
2023-08-22T22:33:52.433Z,46.47
2023-08-22T22:36:18.932Z,46.75
2023-08-22T22:38:45.807Z,46.32
2023-08-22T22:41:12.351Z,46.33
2023-08-22T22:43:38.893Z,46.72
2023-08-22T22:46:05.432Z,46.74
2023-08-22T22:48:31.970Z,46.81
2023-08-22T22:50:58.501Z,46.39
2023-08-22T22:53:25.062Z,47.24
2023-08-22T22:55:51.683Z,46.70
2023-08-22T22:58:18.174Z,46.91
2023-08-22T23:00:44.749Z,46.98
2023-08-22T23:03:11.402Z,47.15
2023-08-22T23:05:38.013Z,47.35
2023-08-22T23:08:04.880Z,46.96
2023-08-22T23:10:31.416Z,47.24
2023-08-22T23:12:58.463Z,47.28
2023-08-22T23:15:25.002Z,47.22
2023-08-22T23:17:51.932Z,47.09
2023-08-22T23:20:19.918Z,47.69
2023-08-22T23:22:47.353Z,47.61
2023-08-22T23:25:14.047Z,47.74
2023-08-22T23:27:40.654Z,47.33
2023-08-22T23:30:08.768Z,47.63
2023-08-22T23:32:35.448Z,47.54
2023-08-22T23:35:06.384Z,47.85
2023-08-22T23:37:33.050Z,47.82
2023-08-22T23:39:59.554Z,47.93
2023-08-22T23:42:26.194Z,47.39
2023-08-22T23:44:52.671Z,47.88
2023-08-22T23:47:19.166Z,47.87
2023-08-22T23:49:45.703Z,48.09
2023-08-22T23:52:12.187Z,48.78
2023-08-22T23:54:38.711Z,48.56
2023-08-22T23:57:05.365Z,48.88
2023-08-22T23:59:32.457Z,48.77
